Time;durP1;ratioP1;P1;durP2;ratioP2;P2;SDS_P1;SDS_P2;PMS_P1;PMS_P2;Temp;Humidity;BMP_temperature;BMP_pressure;BME280_temperature;BME280_humidity;BME280_pressure;Samples;Min_cycle;Max_cycle;Signal;HPM_P1;HPM_P2
2023/01/14 00:01:26;;;;;;;19.83;6.20;;;10.50;70.00;;;;;;5051315;28;20075;-46
2023/01/14 00:03:54;;;;;;;20.77;5.60;;;10.50;70.10;;;;;;5048778;28;20049;-46
2023/01/14 00:06:23;;;;;;;18.77;6.10;;;10.40;70.00;;;;;;5043853;28;20046;-45
2023/01/14 00:09:05;;;;;;;19.30;4.68;;;10.40;70.10;;;;;;5047889;28;20049;-45
2023/01/14 00:11:48;;;;;;;17.25;6.53;;;10.40;70.10;;;;;;5049279;28;20736;-45
2023/01/14 00:14:30;;;;;;;17.73;4.63;;;10.40;70.10;;;;;;5038828;28;20562;-48
2023/01/14 00:16:58;;;;;;;18.70;4.75;;;10.40;70.10;;;;;;5060504;22;21318;-46
2023/01/14 00:19:30;;;;;;;15.90;4.28;;;10.30;70.10;;;;;;5013905;28;20391;-47
2023/01/14 00:21:58;;;;;;;20.08;4.80;;;10.40;70.20;;;;;;5027812;28;20037;-47
2023/01/14 00:24:26;;;;;;;17.33;4.57;;;10.30;70.20;;;;;;5017830;28;20076;-47
2023/01/14 00:27:08;;;;;;;18.73;5.50;;;10.30;70.30;;;;;;5028961;28;20076;-49
2023/01/14 00:29:43;;;;;;;17.95;4.82;;;10.30;70.30;;;;;;5023863;28;20057;-51
2023/01/14 00:32:10;;;;;;;14.45;3.90;;;10.30;70.30;;;;;;5011521;28;20049;-51
2023/01/14 00:34:36;;;;;;;19.05;5.80;;;10.30;70.30;;;;;;5025939;28;20033;-50
2023/01/14 00:37:07;;;;;;;15.40;5.00;;;10.30;70.30;;;;;;5029605;28;20136;-51
2023/01/14 00:39:33;;;;;;;12.55;4.65;;;10.30;70.40;;;;;;4993073;28;20049;-48
2023/01/14 00:42:11;;;;;;;10.35;4.50;;;10.30;70.50;;;;;;4987852;28;20156;-48
2023/01/14 00:44:50;;;;;;;;;;;;;;;;;;;;;
2023/01/14 00:47:20;;;;;;;15.82;4.60;;;10.20;70.50;;;;;;5028080;28;20525;-51
2023/01/14 00:49:47;;;;;;;17.90;4.78;;;10.20;70.50;;;;;;5025765;28;20052;-46
2023/01/14 00:52:13;;;;;;;19.15;4.35;;;10.20;70.60;;;;;;5018867;28;20037;-47
2023/01/14 00:54:43;;;;;;;17.83;4.88;;;10.20;70.60;;;;;;5029757;28;20531;-47
2023/01/14 00:57:12;;;;;;;14.23;4.93;;;10.20;70.60;;;;;;5028128;28;20560;-47
2023/01/14 00:59:53;;;;;;;18.05;5.32;;;10.20;70.60;;;;;;5017024;28;20044;-48
2023/01/14 01:02:20;;;;;;;17.63;4.60;;;10.20;70.60;;;;;;5014430;28;20103;-46
2023/01/14 01:04:52;;;;;;;11.80;5.03;;;10.20;70.60;;;;;;5001935;28;20092;-49
2023/01/14 01:07:22;;;;;;;;;;;10.20;70.70;;;;;;5023119;28;20117;-47
2023/01/14 01:09:49;;;;;;;15.45;5.03;;;10.20;70.70;;;;;;4989683;28;19922;-48
2023/01/14 01:12:15;;;;;;;17.95;4.03;;;10.20;70.60;;;;;;5006273;28;20041;-48
2023/01/14 01:14:47;;;;;;;19.92;4.75;;;10.20;70.60;;;;;;5030087;28;20441;-48
2023/01/14 01:17:14;;;;;;;15.60;4.55;;;10.10;70.60;;;;;;5025409;28;20034;-51
2023/01/14 01:19:40;;;;;;;18.65;5.15;;;10.10;70.70;;;;;;5004988;28;20110;-51
2023/01/14 01:22:10;;;;;;;12.90;5.35;;;10.10;70.80;;;;;;4996199;28;20043;-46
2023/01/14 01:24:38;;;;;;;14.45;4.57;;;10.10;70.90;;;;;;5029757;28;20115;-47
2023/01/14 01:27:05;;;;;;;15.30;4.80;;;10.10;70.90;;;;;;5027400;28;20037;-51
2023/01/14 01:29:34;;;;;;;14.65;4.78;;;10.10;71.00;;;;;;5023087;28;20034;-46
2023/01/14 01:32:01;;;;;;;17.77;5.03;;;10.00;70.90;;;;;;5020468;28;20038;-47
2023/01/14 01:34:28;;;;;;;21.60;4.43;;;10.00;71.00;;;;;;5010794;28;20049;-47
2023/01/14 01:36:58;;;;;;;18.17;4.22;;;10.00;71.00;;;;;;5027179;28;20523;-47
2023/01/14 01:39:25;;;;;;;15.75;5.30;;;10.00;71.00;;;;;;5021467;28;20061;-49
2023/01/14 01:41:56;;;;;;;14.15;3.83;;;10.00;71.10;;;;;;5027325;28;20053;-47
2023/01/14 01:44:29;;;;;;;15.70;4.07;;;9.90;71.10;;;;;;5011056;28;20698;-51
2023/01/14 01:46:56;;;;;;;14.65;4.55;;;9.90;71.10;;;;;;5027660;28;20049;-47
2023/01/14 01:49:35;;;;;;;12.82;4.53;;;9.90;71.20;;;;;;5019338;28;20437;-49
2023/01/14 01:52:27;;;;;;;17.08;3.85;;;9.90;71.20;;;;;;5009139;28;20405;-47
2023/01/14 01:55:06;;;;;;;16.10;5.00;;;9.90;71.40;;;;;;5029281;28;20038;-48
2023/01/14 01:57:36;;;;;;;14.52;4.65;;;9.90;71.40;;;;;;5018460;28;20486;-48
2023/01/14 02:00:07;;;;;;;17.88;4.72;;;9.90;71.40;;;;;;5003034;28;20075;-49
2023/01/14 02:02:45;;;;;;;19.50;4.95;;;9.90;72.10;;;;;;5028064;28;20038;-51
2023/01/14 02:05:12;;;;;;;11.82;4.95;;;9.90;71.50;;;;;;5009962;28;20037;-49
2023/01/14 02:07:39;;;;;;;17.90;4.78;;;9.80;71.50;;;;;;4993264;28;20081;-47
2023/01/14 02:10:06;;;;;;;12.60;4.68;;;9.80;71.60;;;;;;5011278;28;20129;-49
2023/01/14 02:13:01;;;;;;;18.48;4.15;;;9.80;71.70;;;;;;5026835;28;20041;-51
2023/01/14 02:16:13;;;;;;;15.10;3.50;;;9.90;71.90;;;;;;4992139;28;20041;-49
2023/01/14 02:19:15;;;;;;;21.25;4.30;;;9.90;71.90;;;;;;4983345;28;20275;-51
2023/01/14 02:22:17;;;;;;;21.95;5.22;;;9.90;71.90;;;;;;4988375;28;20514;-49
2023/01/14 02:25:03;;;;;;;14.00;4.10;;;9.90;71.80;;;;;;5010421;28;20057;-47
2023/01/14 02:28:03;;;;;;;16.83;4.53;;;9.90;71.80;;;;;;5022433;28;20050;-51
2023/01/14 02:30:47;;;;;;;17.63;4.40;;;10.00;71.80;;;;;;4999588;28;20664;-48
2023/01/14 02:33:23;;;;;;;14.98;4.32;;;10.00;71.80;;;;;;5001147;28;20049;-51
2023/01/14 02:36:04;;;;;;;10.70;3.65;;;10.00;71.80;;;;;;4984261;28;20798;-46
2023/01/14 02:38:49;;;;;;;21.38;4.90;;;10.00;71.70;;;;;;5001501;28;20043;-46
2023/01/14 02:44:41;;;;;;;17.95;4.35;;;10.00;71.60;;;;;;4988315;28;20498;-47
2023/01/14 02:47:18;;;;;;;14.57;4.15;;;10.00;71.50;;;;;;5027118;28;20444;-47
2023/01/14 02:49:50;;;;;;;12.10;3.42;;;9.90;71.40;;;;;;5025629;28;20045;-47
2023/01/14 02:52:19;;;;;;;9.18;3.42;;;9.90;71.50;;;;;;5007086;28;20038;-48
2023/01/14 02:55:03;;;;;;;16.25;4.25;;;9.90;71.50;;;;;;5018484;28;20441;-46
2023/01/14 02:58:16;;;;;;;13.63;4.20;;;9.90;71.50;;;;;;5017428;28;20049;-47
2023/01/14 03:01:06;;;;;;;13.88;3.78;;;9.90;71.50;;;;;;5025544;28;20527;-49
2023/01/14 03:03:33;;;;;;;19.65;4.60;;;9.90;71.50;;;;;;5017678;28;20045;-51
2023/01/14 03:06:23;;;;;;;17.15;4.57;;;9.80;71.50;;;;;;5009521;28;20390;-50
2023/01/14 03:09:12;;;;;;;14.43;4.07;;;9.80;71.60;;;;;;5013689;28;20180;-48
2023/01/14 03:11:53;;;;;;;14.07;3.83;;;9.80;71.70;;;;;;5005243;28;20394;-47
2023/01/14 03:14:27;;;;;;;12.52;3.95;;;9.80;71.70;;;;;;4998935;28;20044;-47
2023/01/14 03:17:01;;;;;;;11.70;4.43;;;9.80;71.70;;;;;;5013594;28;20073;-48
2023/01/14 03:19:38;;;;;;;11.77;3.58;;;9.80;71.80;;;;;;5012531;28;20505;-48
2023/01/14 03:22:07;;;;;;;16.38;4.03;;;9.80;71.90;;;;;;5012323;28;20069;-48
2023/01/14 03:24:38;;;;;;;16.13;4.43;;;9.70;71.80;;;;;;5013267;28;20135;-47
2023/01/14 03:27:23;;;;;;;14.30;3.85;;;9.70;72.00;;;;;;5012876;28;20425;-51
2023/01/14 03:30:02;;;;;;;16.80;4.28;;;9.80;72.00;;;;;;5012810;28;20049;-48
2023/01/14 03:32:37;;;;;;;12.75;3.75;;;9.80;72.00;;;;;;4993441;28;20050;-47
2023/01/14 03:35:23;;;;;;;14.32;4.28;;;9.80;72.00;;;;;;5012840;28;20045;-47
2023/01/14 03:38:06;;;;;;;16.30;4.35;;;9.80;72.00;;;;;;5029904;28;20041;-49
2023/01/14 03:40:39;;;;;;;15.85;4.80;;;9.80;72.00;;;;;;5024866;28;20041;-47
2023/01/14 03:43:45;;;;;;;11.68;4.40;;;9.80;72.00;;;;;;5029433;28;20432;-50
2023/01/14 03:46:12;;;;;;;15.52;3.80;;;9.80;72.00;;;;;;5002322;28;20153;-52
2023/01/14 03:48:43;;;;;;;14.45;3.70;;;9.80;72.00;;;;;;5006199;28;20037;-47
2023/01/14 03:51:57;;;;;;;19.15;4.22;;;9.80;72.00;;;;;;5013353;28;22101;-47
2023/01/14 03:54:38;;;;;;;16.02;3.85;;;9.80;71.90;;;;;;5020735;28;20128;-47
2023/01/14 03:57:26;;;;;;;13.88;3.80;;;9.80;71.90;;;;;;5027973;28;20068;-47
2023/01/14 04:00:02;;;;;;;20.48;4.15;;;9.80;71.90;;;;;;5023945;28;20057;-48
2023/01/14 04:02:41;;;;;;;15.00;4.72;;;9.80;71.90;;;;;;5019504;28;20560;-51
2023/01/14 04:05:11;;;;;;;12.00;3.47;;;9.80;71.90;;;;;;5027138;28;20433;-51
2023/01/14 04:07:40;;;;;;;12.43;3.85;;;9.80;72.00;;;;;;5024353;28;20333;-47
2023/01/14 04:10:10;;;;;;;13.98;4.15;;;9.80;72.00;;;;;;5020665;28;20042;-47
2023/01/14 04:15:20;;;;;;;10.65;3.40;;;9.80;72.10;;;;;;5028306;28;20044;-46
2023/01/14 04:15:25;;;;;;;12.32;3.85;;;9.90;72.10;;;;;;5031294;28;20414;-49
2023/01/14 04:17:52;;;;;;;11.10;3.22;;;9.90;72.10;;;;;;5017929;28;20056;-48
2023/01/14 04:20:19;;;;;;;9.43;3.28;;;9.90;72.10;;;;;;5019332;28;20512;-47
2023/01/14 04:22:48;;;;;;;11.65;4.30;;;9.90;72.10;;;;;;5029385;28;20045;-50
2023/01/14 04:25:17;;;;;;;11.48;4.55;;;9.90;72.10;;;;;;5028238;28;20069;-49
2023/01/14 04:27:53;;;;;;;13.07;3.40;;;9.90;72.00;;;;;;5013648;28;20074;-48
2023/01/14 04:30:22;;;;;;;13.20;3.95;;;10.00;72.10;;;;;;5019513;28;20113;-47
2023/01/14 04:32:49;;;;;;;12.15;2.67;;;10.00;72.00;;;;;;5030144;28;20128;-47
2023/01/14 04:35:16;;;;;;;10.65;2.70;;;10.00;72.00;;;;;;5031088;28;20408;-50
2023/01/14 04:37:55;;;;;;;9.60;2.70;;;10.00;72.00;;;;;;5022481;28;20111;-46
2023/01/14 04:40:24;;;;;;;13.30;3.40;;;10.00;71.90;;;;;;5014959;28;20421;-51
2023/01/14 04:42:51;;;;;;;12.45;3.22;;;10.00;71.80;;;;;;5012345;28;20046;-50
2023/01/14 04:45:20;;;;;;;13.50;4.35;;;10.00;71.80;;;;;;5025582;28;20124;-51
2023/01/14 04:47:49;;;;;;;12.23;3.22;;;10.00;71.70;;;;;;5013554;28;20401;-47
2023/01/14 04:50:32;;;;;;;13.45;3.25;;;10.00;71.70;;;;;;5029916;28;20072;-47
2023/01/14 04:53:13;;;;;;;11.73;2.95;;;10.00;71.70;;;;;;5020811;28;20070;-50
2023/01/14 04:55:45;;;;;;;8.80;3.63;;;10.00;71.60;;;;;;5020686;28;20117;-51
2023/01/14 04:58:18;;;;;;;10.97;3.13;;;10.00;71.60;;;;;;5024783;28;20073;-49
2023/01/14 05:00:45;;;;;;;15.88;3.38;;;10.00;71.60;;;;;;5029812;28;20292;-48
2023/01/14 05:03:15;;;;;;;11.48;3.00;;;9.90;71.60;;;;;;5022808;28;20045;-47
2023/01/14 05:05:45;;;;;;;13.85;2.95;;;10.00;71.60;;;;;;5013513;28;20073;-47
2023/01/14 05:08:12;;;;;;;10.52;3.00;;;9.90;71.70;;;;;;5028945;28;20416;-47
2023/01/14 05:10:40;;;;;;;7.75;2.50;;;9.90;71.70;;;;;;5030626;28;20041;-48
2023/01/14 05:13:09;;;;;;;15.82;3.45;;;9.90;71.70;;;;;;5020698;28;20048;-47
2023/01/14 05:15:41;;;;;;;9.75;3.50;;;9.90;71.80;;;;;;5020594;28;20042;-51
2023/01/14 05:18:11;;;;;;;13.38;3.15;;;9.90;71.80;;;;;;5028381;28;20072;-47
2023/01/14 05:20:38;;;;;;;12.30;3.22;;;9.90;71.80;;;;;;5029542;28;20049;-51
2023/01/14 05:23:09;;;;;;;12.15;2.70;;;9.90;71.80;;;;;;5015751;28;20414;-48
2023/01/14 05:25:39;;;;;;;11.07;3.78;;;9.90;71.80;;;;;;5024357;28;20821;-47
2023/01/14 05:28:11;;;;;;;18.83;3.42;;;9.90;71.70;;;;;;5023732;28;20046;-47
2023/01/14 05:30:40;;;;;;;10.48;4.10;;;9.90;71.60;;;;;;5029852;28;20125;-48
2023/01/14 05:33:09;;;;;;;11.85;3.25;;;9.90;71.60;;;;;;5023574;28;20045;-47
2023/01/14 05:35:38;;;;;;;11.65;3.28;;;10.00;71.60;;;;;;5019387;28;20103;-47
2023/01/14 05:38:09;;;;;;;13.93;3.05;;;10.00;71.60;;;;;;5026551;28;20050;-49
2023/01/14 05:40:36;;;;;;;7.78;3.22;;;9.90;72.20;;;;;;5024852;28;20044;-47
2023/01/14 05:45:51;;;;;;;12.32;2.70;;;10.00;71.50;;;;;;5023819;28;20052;-47
2023/01/14 05:48:24;;;;;;;7.15;2.40;;;10.00;71.50;;;;;;5028073;28;20037;-48
2023/01/14 05:50:52;;;;;;;10.10;2.75;;;10.00;71.50;;;;;;5015746;28;20124;-47
2023/01/14 05:53:19;;;;;;;9.90;3.38;;;10.00;71.50;;;;;;5027607;28;20497;-46
2023/01/14 05:55:49;;;;;;;7.55;2.58;;;10.00;71.50;;;;;;5029310;28;20041;-46
2023/01/14 05:58:17;;;;;;;9.23;2.45;;;10.00;71.40;;;;;;5021890;28;20132;-46
2023/01/14 06:06:29;;;;;;;14.75;3.45;;;10.10;71.40;;;;;;5023126;28;20052;-49
2023/01/14 06:09:05;;;;;;;12.98;3.42;;;10.20;71.20;;;;;;5028115;28;20037;-47
2023/01/14 06:11:39;;;;;;;11.52;3.60;;;10.20;71.30;;;;;;5017891;28;20092;-47
2023/01/14 06:14:08;;;;;;;;;;;10.20;71.10;;;;;;5019716;28;20155;-49
2023/01/14 06:16:43;;;;;;;9.57;2.97;;;10.30;70.90;;;;;;5028528;28;19928;-48
2023/01/14 06:19:13;;;;;;;7.85;2.80;;;10.30;70.90;;;;;;5025035;28;20516;-50
2023/01/14 06:21:42;;;;;;;10.10;3.10;;;10.30;70.90;;;;;;5025895;28;20072;-48
2023/01/14 06:24:11;;;;;;;10.37;2.80;;;10.30;70.80;;;;;;5028235;28;20042;-51
2023/01/14 06:26:42;;;;;;;14.20;3.22;;;10.30;70.80;;;;;;5028465;28;20283;-47
2023/01/14 06:29:12;;;;;;;12.68;3.50;;;10.30;70.90;;;;;;5018909;28;20120;-48
2023/01/14 06:31:41;;;;;;;9.25;2.80;;;10.40;71.00;;;;;;5012148;28;20038;-50
2023/01/14 06:34:15;;;;;;;8.55;2.72;;;10.40;71.10;;;;;;5022634;28;20050;-48
2023/01/14 06:36:41;;;;;;;11.60;3.88;;;10.40;71.00;;;;;;5028477;28;20048;-50
2023/01/14 06:39:08;;;;;;;7.70;2.72;;;10.40;71.00;;;;;;5015999;28;20525;-47
2023/01/14 06:41:34;;;;;;;10.98;2.45;;;10.40;70.90;;;;;;5029508;28;20068;-50
2023/01/14 06:44:02;;;;;;;9.80;2.40;;;10.40;71.00;;;;;;5031422;28;20061;-50
2023/01/14 06:46:31;;;;;;;7.63;2.65;;;10.50;71.20;;;;;;5026443;28;20045;-47
2023/01/14 06:48:58;;;;;;;11.90;2.85;;;10.50;71.30;;;;;;5028341;28;20120;-49
2023/01/14 06:51:26;;;;;;;11.05;3.22;;;10.50;71.40;;;;;;5022023;28;20140;-51
2023/01/14 06:53:54;;;;;;;11.07;2.70;;;10.50;71.30;;;;;;5030312;28;20093;-46
2023/01/14 06:56:34;;;;;;;13.88;2.70;;;10.50;71.40;;;;;;5024174;28;20073;-52
2023/01/14 06:59:00;;;;;;;10.38;2.97;;;10.50;71.40;;;;;;5015078;28;20077;-47
2023/01/14 07:01:29;;;;;;;11.52;3.15;;;10.50;71.50;;;;;;5015555;28;20046;-49
2023/01/14 07:04:00;;;;;;;7.50;2.47;;;10.50;71.60;;;;;;5031405;28;20068;-48
2023/01/14 07:06:31;;;;;;;13.07;2.15;;;10.50;71.70;;;;;;5016791;28;20057;-47
2023/01/14 07:09:02;;;;;;;9.35;2.65;;;10.50;71.70;;;;;;5027876;28;20052;-49
2023/01/14 07:11:31;;;;;;;5.28;2.60;;;10.50;71.70;;;;;;5028170;28;20029;-47
2023/01/14 07:13:57;;;;;;;11.90;3.55;;;10.50;71.60;;;;;;5027150;28;20052;-50
2023/01/14 07:16:24;;;;;;;11.93;2.88;;;10.50;71.70;;;;;;5020059;28;20499;-48
2023/01/14 07:18:53;;;;;;;7.53;2.45;;;10.50;71.90;;;;;;5001487;28;20083;-47
2023/01/14 07:21:20;;;;;;;10.93;2.30;;;10.50;72.00;;;;;;5019191;28;20041;-50
2023/01/14 07:23:47;;;;;;;10.10;3.50;;;10.50;72.10;;;;;;5027137;28;20057;-50
2023/01/14 07:26:16;;;;;;;7.88;2.80;;;10.50;72.20;;;;;;5006483;28;20556;-50
2023/01/14 07:28:43;;;;;;;8.50;2.42;;;10.50;72.30;;;;;;5002717;28;20129;-47
2023/01/14 07:31:09;;;;;;;10.23;2.47;;;10.50;72.50;;;;;;5011220;28;20069;-47
2023/01/14 07:33:36;;;;;;;12.07;2.78;;;10.50;72.70;;;;;;5011021;28;20076;-47
2023/01/14 07:36:05;;;;;;;12.40;2.92;;;10.50;72.80;;;;;;5002506;28;20103;-47
2023/01/14 07:38:33;;;;;;;7.60;2.08;;;10.50;73.00;;;;;;5011835;28;20052;-47
2023/01/14 07:41:00;;;;;;;8.77;2.33;;;10.50;73.10;;;;;;5009512;28;20052;-48
2023/01/14 07:43:26;;;;;;;8.30;2.25;;;10.50;73.20;;;;;;5015576;28;20049;-47
2023/01/14 07:45:58;;;;;;;12.95;2.70;;;10.50;73.40;;;;;;5012274;28;20145;-49
2023/01/14 07:48:25;;;;;;;8.30;2.03;;;10.50;73.60;;;;;;5009170;28;20042;-51
2023/01/14 07:50:51;;;;;;;5.10;1.90;;;10.50;73.60;;;;;;5011464;28;20096;-49
2023/01/14 07:53:18;;;;;;;7.43;2.10;;;10.50;73.80;;;;;;5013613;28;20048;-48
2023/01/14 07:55:46;;;;;;;7.32;2.28;;;10.50;73.90;;;;;;5019767;28;20465;-48
2023/01/14 07:58:14;;;;;;;7.93;1.58;;;10.50;74.00;;;;;;5021376;28;20521;-47
2023/01/14 08:00:41;;;;;;;5.30;1.70;;;10.60;74.10;;;;;;5018816;28;20061;-50
2023/01/14 08:03:07;;;;;;;2.83;1.45;;;10.60;74.30;;;;;;5022702;28;20520;-51
2023/01/14 08:05:34;;;;;;;9.10;2.10;;;10.60;74.30;;;;;;5013312;28;20046;-48
2023/01/14 08:08:01;;;;;;;5.88;1.92;;;10.60;74.30;;;;;;5026135;28;20125;-48
2023/01/14 08:10:28;;;;;;;6.55;1.52;;;10.60;74.40;;;;;;5027043;28;20112;-49
2023/01/14 08:12:54;;;;;;;4.55;1.38;;;10.60;74.40;;;;;;5006096;28;20038;-46
2023/01/14 08:15:21;;;;;;;6.60;1.40;;;10.60;74.50;;;;;;5015572;28;20038;-48
2023/01/14 08:17:48;;;;;;;4.65;1.60;;;10.60;74.50;;;;;;5027747;28;20414;-47
2023/01/14 08:20:15;;;;;;;5.18;1.80;;;10.70;74.60;;;;;;5020421;28;20452;-47
2023/01/14 08:22:42;;;;;;;4.55;1.08;;;10.70;74.70;;;;;;5011842;28;20044;-48
2023/01/14 08:25:09;;;;;;;5.00;1.48;;;10.70;74.60;;;;;;5023869;28;20132;-47
2023/01/14 08:27:36;;;;;;;3.10;1.20;;;10.70;74.60;;;;;;5000710;28;20187;-51
2023/01/14 08:30:03;;;;;;;2.45;1.00;;;10.70;74.60;;;;;;5021604;28;20038;-47
2023/01/14 08:32:30;;;;;;;3.75;0.80;;;10.80;74.70;;;;;;5018949;28;20030;-47
2023/01/14 08:34:56;;;;;;;3.78;1.40;;;10.80;74.60;;;;;;5024415;28;20041;-50
2023/01/14 08:37:23;;;;;;;2.75;0.90;;;10.80;75.20;;;;;;5029531;28;20045;-51
2023/01/14 08:39:50;;;;;;;4.63;1.20;;;10.80;74.60;;;;;;5017892;28;20042;-50
2023/01/14 08:42:19;;;;;;;2.72;0.80;;;10.90;74.60;;;;;;5015393;28;20117;-50
2023/01/14 08:44:46;;;;;;;3.60;0.82;;;10.90;74.60;;;;;;5021898;28;20041;-51
2023/01/14 08:47:12;;;;;;;2.28;0.70;;;10.90;74.60;;;;;;5018764;28;20124;-51
2023/01/14 08:49:39;;;;;;;0.90;0.57;;;10.90;74.60;;;;;;5014128;28;20076;-47
2023/01/14 08:52:06;;;;;;;1.60;0.73;;;10.90;74.60;;;;;;5023910;28;20045;-51
2023/01/14 08:54:34;;;;;;;0.88;0.52;;;11.00;74.50;;;;;;4999284;28;20121;-48
2023/01/14 08:57:00;;;;;;;2.75;0.70;;;11.00;74.50;;;;;;5020110;28;20410;-49
2023/01/14 08:59:27;;;;;;;4.55;1.27;;;11.00;74.40;;;;;;5015606;28;20111;-48
2023/01/14 09:01:54;;;;;;;3.05;1.08;;;11.10;74.50;;;;;;5010514;28;20049;-49
2023/01/14 09:04:24;;;;;;;4.20;1.25;;;11.10;74.50;;;;;;5022373;28;20591;-49
2023/01/14 09:18:06;;;;;;;2.22;0.68;;;11.20;74.20;;;;;;5019303;28;20045;-52
2023/01/14 09:20:38;;;;;;;3.10;0.88;;;11.30;74.10;;;;;;5024993;28;20121;-49
2023/01/14 09:23:10;;;;;;;3.00;0.57;;;11.30;74.20;;;;;;5029294;28;20099;-49
2023/01/14 09:25:37;;;;;;;1.83;0.88;;;11.30;74.10;;;;;;5029290;28;20509;-50
2023/01/14 09:28:04;;;;;;;1.13;0.60;;;11.30;74.00;;;;;;5014394;28;20069;-51
2023/01/14 09:30:33;;;;;;;2.20;0.75;;;11.40;74.10;;;;;;5024480;28;20628;-50
2023/01/14 09:33:01;;;;;;;3.25;0.80;;;11.40;74.00;;;;;;5029187;28;20052;-51
2023/01/14 09:35:35;;;;;;;2.75;0.77;;;11.40;74.00;;;;;;5023138;28;20521;-51
2023/01/14 09:38:02;;;;;;;2.42;1.08;;;11.40;73.80;;;;;;5029901;28;20045;-50
2023/01/14 09:40:31;;;;;;;2.72;1.15;;;11.50;73.80;;;;;;5029951;28;20073;-51
2023/01/14 09:42:58;;;;;;;5.10;1.10;;;11.50;73.70;;;;;;5026016;28;20128;-52
2023/01/14 09:45:32;;;;;;;2.65;1.00;;;11.50;73.70;;;;;;5014562;28;20041;-51
2023/01/14 09:48:12;;;;;;;4.93;0.90;;;11.60;73.80;;;;;;5021130;28;20039;-52
2023/01/14 09:50:50;;;;;;;2.13;0.98;;;11.60;73.80;;;;;;5030225;28;20045;-51
2023/01/14 09:53:50;;;;;;;4.78;1.00;;;11.70;74.00;;;;;;5016971;28;20129;-49
2023/01/14 09:56:24;;;;;;;4.25;1.13;;;11.70;74.00;;;;;;5020122;28;20045;-48
2023/01/14 09:58:54;;;;;;;8.07;1.67;;;11.70;74.00;;;;;;5003259;28;20046;-50
2023/01/14 10:01:37;;;;;;;1.83;1.13;;;11.70;74.00;;;;;;5027451;28;20099;-52
2023/01/14 10:04:24;;;;;;;3.00;1.42;;;11.70;74.30;;;;;;5019819;28;20459;-50
2023/01/14 10:06:55;;;;;;;3.15;1.25;;;11.70;74.60;;;;;;5016894;28;20452;-48
2023/01/14 10:09:31;;;;;;;4.97;1.40;;;11.70;74.40;;;;;;5012590;28;20120;-50
2023/01/14 10:12:02;;;;;;;2.63;1.02;;;11.70;74.50;;;;;;5023522;28;20033;-51
2023/01/14 10:14:38;;;;;;;6.13;1.23;;;11.70;74.60;;;;;;5015276;28;20612;-47
2023/01/14 10:17:12;;;;;;;1.92;1.30;;;11.80;74.80;;;;;;5018465;28;20046;-51
2023/01/14 10:19:49;;;;;;;3.22;1.00;;;11.80;74.90;;;;;;5021512;28;20045;-49
2023/01/14 10:22:38;;;;;;;4.00;1.23;;;11.80;75.10;;;;;;4994488;28;20046;-50
2023/01/14 10:25:20;;;;;;;2.25;0.90;;;11.80;75.40;;;;;;5015899;28;20418;-50
2023/01/14 10:27:55;;;;;;;5.97;1.45;;;11.80;75.30;;;;;;5014074;28;20602;-47
2023/01/14 10:30:34;;;;;;;2.25;1.20;;;11.80;75.40;;;;;;5015901;28;20120;-51
2023/01/14 10:33:06;;;;;;;3.15;1.30;;;11.80;75.70;;;;;;5013478;28;20042;-51
2023/01/14 10:35:38;;;;;;;3.45;1.42;;;11.80;75.60;;;;;;5016635;28;20125;-49
2023/01/14 10:38:06;;;;;;;1.48;0.88;;;11.80;75.70;;;;;;4994023;28;20038;-47
2023/01/14 10:40:34;;;;;;;3.85;1.10;;;11.80;75.70;;;;;;5017389;28;20046;-49
2023/01/14 10:43:02;;;;;;;4.32;1.00;;;11.80;75.70;;;;;;5020406;28;20076;-49
2023/01/14 10:45:29;;;;;;;2.47;0.98;;;11.80;75.80;;;;;;5024101;28;20057;-46
2023/01/14 10:48:02;;;;;;;2.55;1.02;;;11.80;75.90;;;;;;5030498;28;20123;-49
2023/01/14 10:50:31;;;;;;;2.80;0.60;;;11.90;76.00;;;;;;5017147;28;20084;-48
2023/01/14 10:53:14;;;;;;;2.33;0.85;;;11.80;76.10;;;;;;5013166;28;20048;-51
2023/01/14 10:55:47;;;;;;;2.35;0.85;;;11.90;76.60;;;;;;5013566;28;20398;-47
2023/01/14 10:58:26;;;;;;;2.58;0.80;;;11.90;76.40;;;;;;5010618;28;20417;-47
2023/01/14 11:01:03;;;;;;;1.70;0.50;;;11.90;76.30;;;;;;5018221;28;20410;-47
2023/01/14 11:03:48;;;;;;;2.08;0.73;;;11.90;76.30;;;;;;5023752;28;20057;-48
2023/01/14 11:06:17;;;;;;;2.03;0.70;;;11.90;76.60;;;;;;4999415;28;20052;-48
2023/01/14 11:08:46;;;;;;;1.40;0.75;;;11.90;76.20;;;;;;5010985;28;20394;-50
2023/01/14 11:11:20;;;;;;;3.15;1.02;;;11.90;76.20;;;;;;5025566;28;20048;-51
2023/01/14 11:13:50;;;;;;;2.65;0.65;;;11.90;76.30;;;;;;5022730;28;20075;-51
2023/01/14 11:16:27;;;;;;;1.67;0.68;;;12.00;76.40;;;;;;5024660;28;20045;-51
2023/01/14 11:19:02;;;;;;;0.63;0.50;;;12.00;76.50;;;;;;5021698;28;20145;-52
2023/01/14 11:21:40;;;;;;;1.80;0.60;;;12.00;76.60;;;;;;5012893;28;20038;-49
2023/01/14 11:24:18;;;;;;;0.65;0.40;;;12.00;76.50;;;;;;5031331;28;20540;-52
2023/01/14 11:26:45;;;;;;;3.17;2.03;;;12.20;76.80;;;;;;5012970;28;20125;-50
2023/01/14 11:29:22;;;;;;;2.20;1.00;;;12.10;76.50;;;;;;5014231;28;20121;-47
2023/01/14 11:32:03;;;;;;;1.42;1.27;;;12.00;76.70;;;;;;5018073;28;20041;-48
2023/01/14 11:34:38;;;;;;;2.92;2.47;;;12.10;76.70;;;;;;5031515;28;20409;-48
2023/01/14 11:37:34;;;;;;;2.28;1.50;;;12.10;76.70;;;;;;5021717;28;20056;-50
2023/01/14 11:40:03;;;;;;;1.23;1.15;;;12.10;77.00;;;;;;5017962;28;20455;-51
2023/01/14 11:42:38;;;;;;;3.17;1.88;;;12.20;76.60;;;;;;5022751;28;20041;-51
2023/01/14 11:45:11;;;;;;;2.72;1.50;;;12.20;76.70;;;;;;5020024;28;20042;-48
2023/01/14 11:47:55;;;;;;;1.75;1.02;;;12.20;76.70;;;;;;5017199;28;20053;-50
2023/01/14 11:50:23;;;;;;;3.80;1.50;;;12.20;76.80;;;;;;5028384;28;20112;-47
2023/01/14 11:53:14;;;;;;;1.70;0.60;;;12.30;76.70;;;;;;5019592;28;20045;-49
2023/01/14 11:55:44;;;;;;;1.35;0.75;;;12.30;76.80;;;;;;5024241;28;20116;-47
2023/01/14 11:58:16;;;;;;;0.65;0.40;;;12.30;76.60;;;;;;5011755;28;20077;-47
2023/01/14 12:00:54;;;;;;;0.93;0.55;;;12.40;76.50;;;;;;5024161;28;20040;-47
2023/01/14 12:03:48;;;;;;;0.77;0.50;;;12.40;76.40;;;;;;5030753;28;20060;-48
2023/01/14 12:06:18;;;;;;;2.95;1.50;;;12.40;76.40;;;;;;5005844;28;20759;-47
2023/01/14 12:08:50;;;;;;;2.35;1.77;;;12.50;76.40;;;;;;5023766;28;20124;-47
2023/01/14 12:11:19;;;;;;;;;;;12.50;76.30;;;;;;5029132;28;20132;-47
2023/01/14 12:16:49;;;;;;;0.65;0.50;;;12.50;75.90;;;;;;5016136;28;20663;-51
2023/01/14 12:19:44;;;;;;;0.47;0.28;;;12.60;76.00;;;;;;5014867;28;20124;-47
2023/01/14 12:22:31;;;;;;;0.50;0.13;;;12.60;76.10;;;;;;5014546;28;20043;-51
2023/01/14 12:25:12;;;;;;;0.50;0.40;;;12.60;76.10;;;;;;5025666;28;20095;-48
2023/01/14 12:28:03;;;;;;;0.80;0.32;;;12.60;76.00;;;;;;5012208;28;20068;-51
2023/01/14 12:30:36;;;;;;;0.40;0.38;;;12.60;76.00;;;;;;5021803;28;20041;-50
2023/01/14 12:33:12;;;;;;;1.10;0.40;;;12.60;76.00;;;;;;5030806;28;20119;-47
2023/01/14 12:35:56;;;;;;;0.80;0.30;;;12.60;76.00;;;;;;5016047;28;20445;-47
2023/01/14 12:47:48;;;;;;;0.73;0.32;;;12.70;76.10;;;;;;5029746;28;20136;-48
2023/01/14 12:50:15;;;;;;;0.85;0.40;;;12.60;75.90;;;;;;5026540;28;20038;-47
2023/01/14 12:52:50;;;;;;;1.00;0.30;;;12.60;76.00;;;;;;5012406;28;20045;-49
2023/01/14 12:55:26;;;;;;;0.55;0.50;;;12.70;76.20;;;;;;5013758;28;20073;-46
2023/01/14 12:57:56;;;;;;;0.95;0.25;;;12.70;76.30;;;;;;5007581;28;20053;-48
2023/01/14 13:00:29;;;;;;;;;;;12.70;76.10;;;;;;5026624;28;20564;-47
2023/01/14 13:03:01;;;;;;;1.63;0.52;;;12.70;76.30;;;;;;5010823;28;19925;-51
2023/01/14 13:05:34;;;;;;;0.77;0.50;;;12.70;75.90;;;;;;5007739;28;20041;-48
2023/01/14 13:08:04;;;;;;;3.40;0.90;;;12.80;76.10;;;;;;5010453;28;20049;-50
2023/01/14 13:10:38;;;;;;;2.10;1.00;;;12.70;76.00;;;;;;4990675;28;20125;-47
2023/01/14 13:13:18;;;;;;;1.42;0.50;;;12.80;76.10;;;;;;5016853;28;20095;-48
2023/01/14 13:15:45;;;;;;;1.08;0.47;;;12.80;76.20;;;;;;5012745;28;20526;-49
2023/01/14 13:18:55;;;;;;;0.63;0.40;;;12.80;76.10;;;;;;5018786;28;20064;-48
2023/01/14 13:21:54;;;;;;;0.30;0.30;;;12.80;76.30;;;;;;5030167;28;20040;-50
2023/01/14 13:24:34;;;;;;;0.90;0.30;;;12.80;76.40;;;;;;5019046;28;20508;-48
2023/01/14 13:27:24;;;;;;;0.63;0.55;;;12.90;76.20;;;;;;5003898;28;20038;-49
2023/01/14 13:30:17;;;;;;;0.40;0.13;;;12.90;76.20;;;;;;5012029;28;20112;-48
2023/01/14 13:32:58;;;;;;;0.28;0.28;;;12.90;76.40;;;;;;5011786;28;20052;-49
2023/01/14 13:35:33;;;;;;;0.80;0.35;;;12.90;76.30;;;;;;5009921;28;20080;-48
2023/01/14 13:38:02;;;;;;;0.30;0.20;;;12.90;76.10;;;;;;5013463;28;20129;-51
2023/01/14 13:40:33;;;;;;;0.30;0.20;;;12.90;76.00;;;;;;5022368;28;20052;-47
2023/01/14 13:43:04;;;;;;;0.98;0.20;;;12.90;76.10;;;;;;5020876;28;20059;-47
2023/01/14 13:45:34;;;;;;;0.68;0.40;;;12.90;76.10;;;;;;5027469;28;20049;-47
2023/01/14 13:48:14;;;;;;;0.55;0.30;;;12.90;76.10;;;;;;5014177;28;20049;-47
2023/01/14 13:50:41;;;;;;;1.40;0.22;;;12.90;76.20;;;;;;5011552;28;20050;-49
2023/01/14 13:53:16;;;;;;;0.57;0.45;;;12.90;76.10;;;;;;5022288;28;20033;-47